createdAt,value
2018-07-25T00:00:06.031Z,98249.30
2018-07-25T00:02:34.572Z,98247.94
2018-07-25T00:05:03.240Z,98246.78
2018-07-25T00:07:31.851Z,98244.58
2018-07-25T00:10:00.386Z,98245.75
2018-07-25T00:12:29.030Z,98248.67
2018-07-25T00:14:58.141Z,98248.87
2018-07-25T00:17:26.905Z,98258.61
2018-07-25T00:19:55.458Z,98256.02
2018-07-25T00:22:23.941Z,98258.21
2018-07-25T00:24:52.546Z,98261.47
2018-07-25T00:27:21.162Z,98260.63
2018-07-25T00:29:49.981Z,98266.20
2018-07-25T00:32:18.509Z,98263.79
2018-07-25T00:34:47.026Z,98270.28
2018-07-25T00:37:15.554Z,98277.11
2018-07-25T00:39:44.075Z,98272.17
2018-07-25T00:42:12.731Z,98270.38
2018-07-25T00:44:41.370Z,98268.55
2018-07-25T00:47:09.854Z,98270.75
2018-07-25T00:49:38.313Z,98272.62
2018-07-25T00:52:06.942Z,98270.09
2018-07-25T00:54:35.406Z,98270.28
2018-07-25T00:57:03.952Z,98269.98
2018-07-25T00:59:32.518Z,98272.67
2018-07-25T01:02:01.066Z,98276.33
2018-07-25T01:04:29.526Z,98269.80
2018-07-25T01:06:58.055Z,98273.27
2018-07-25T01:09:26.646Z,98271.98
2018-07-25T01:11:55.215Z,98274.48
2018-07-25T01:14:23.710Z,98275.92
2018-07-25T01:16:52.472Z,98278.98
2018-07-25T01:19:21.034Z,98281.58
2018-07-25T01:21:49.633Z,98283.06
2018-07-25T01:24:18.655Z,98291.63
2018-07-25T01:26:47.287Z,98283.54
2018-07-25T01:29:15.940Z,98290.53
2018-07-25T01:31:45.521Z,98288.82
2018-07-25T01:34:14.072Z,98287.01
2018-07-25T01:36:42.792Z,98291.45
2018-07-25T01:39:11.777Z,98292.27
2018-07-25T01:41:40.637Z,98296.29
2018-07-25T01:44:09.839Z,98298.05
2018-07-25T01:46:38.375Z,98296.58
2018-07-25T01:49:06.946Z,98293.20
2018-07-25T01:51:35.419Z,98294.45
2018-07-25T01:54:03.889Z,98295.33
2018-07-25T02:02:42.657Z,98294.69
2018-07-25T02:05:11.116Z,98286.17
2018-07-25T02:07:39.703Z,98290.75
2018-07-25T02:10:08.222Z,98286.22
2018-07-25T02:12:36.706Z,98286.30
2018-07-25T02:15:06.451Z,98291.41
2018-07-25T02:17:34.987Z,98299.27
2018-07-25T02:20:03.545Z,98304.24
2018-07-25T02:22:32.022Z,98302.45
2018-07-25T02:25:00.675Z,98308.78
2018-07-25T02:27:29.422Z,98308.41
2018-07-25T02:30:00.204Z,98310.14
2018-07-25T02:32:28.714Z,98304.77
2018-07-25T02:34:57.268Z,98315.13
2018-07-25T02:37:25.776Z,98316.91
2018-07-25T02:39:54.452Z,98315.30
2018-07-25T02:42:23.461Z,98312.92
2018-07-25T02:44:51.911Z,98310.20
2018-07-25T02:47:20.570Z,98311.44
2018-07-25T02:49:49.102Z,98304.05
2018-07-25T02:52:17.646Z,98304.45
2018-07-25T02:54:46.223Z,98301.92
2018-07-25T02:57:14.816Z,98305.02
2018-07-25T02:59:43.354Z,98313.38
2018-07-25T03:02:12.159Z,98307.83
2018-07-25T03:04:40.721Z,98319.39
2018-07-25T03:07:09.291Z,98314.61
2018-07-25T03:09:37.844Z,98314.22
2018-07-25T03:12:06.334Z,98321.00
2018-07-25T03:14:34.851Z,98324.11
2018-07-25T03:17:03.416Z,98324.69
2018-07-25T03:19:32.094Z,98324.16
2018-07-25T03:22:00.594Z,98324.95
2018-07-25T03:24:29.098Z,98328.55
2018-07-25T03:26:57.618Z,98329.46
2018-07-25T03:29:26.230Z,98326.27
2018-07-25T03:31:54.828Z,98328.49
2018-07-25T03:34:23.285Z,98332.17
2018-07-25T03:36:51.865Z,98320.01
2018-07-25T03:39:20.354Z,98329.51
2018-07-25T03:41:48.843Z,98331.97
2018-07-25T03:44:17.308Z,98339.53
2018-07-25T03:46:45.866Z,98340.45
2018-07-25T03:49:14.591Z,98330.64
2018-07-25T03:51:43.114Z,98336.25
2018-07-25T03:54:11.832Z,98333.92
2018-07-25T03:56:40.390Z,98335.46
2018-07-25T03:59:08.928Z,98333.98
2018-07-25T04:01:37.524Z,98341.81
2018-07-25T04:04:06.176Z,98339.92
2018-07-25T04:06:34.699Z,98342.33
2018-07-25T04:09:03.783Z,98342.20
2018-07-25T04:11:32.328Z,98347.02
2018-07-25T04:14:00.874Z,98349.86
2018-07-25T04:16:29.413Z,98354.63
2018-07-25T04:18:58.024Z,98356.20
2018-07-25T04:21:26.710Z,98350.30
2018-07-25T04:23:55.310Z,98356.24
2018-07-25T04:26:23.942Z,98361.80
2018-07-25T04:28:52.633Z,98363.69
2018-07-25T04:31:21.593Z,98364.38
2018-07-25T04:33:50.206Z,98369.11
2018-07-25T04:36:18.726Z,98373.00
2018-07-25T04:38:47.175Z,98374.77
2018-07-25T04:41:15.777Z,98371.84
2018-07-25T04:43:44.257Z,98375.03
2018-07-25T04:46:12.828Z,98376.52
2018-07-25T04:48:41.539Z,98373.41
2018-07-25T04:51:10.336Z,98372.89
2018-07-25T04:53:38.901Z,98382.74
2018-07-25T04:56:07.414Z,98379.88
2018-07-25T04:58:36.006Z,98380.88
2018-07-25T05:01:06.794Z,98383.28
2018-07-25T05:03:35.285Z,98379.44
2018-07-25T05:06:03.863Z,98374.04
2018-07-25T05:08:32.470Z,98383.34
2018-07-25T05:11:00.977Z,98387.91
2018-07-25T05:13:29.546Z,98391.27
2018-07-25T05:15:58.155Z,98394.10
2018-07-25T05:18:26.703Z,98396.11
2018-07-25T05:20:55.190Z,98406.17
2018-07-25T05:23:24.381Z,98403.62
2018-07-25T05:25:53.716Z,98406.66
2018-07-25T05:28:22.279Z,98409.78
2018-07-25T05:30:51.095Z,98405.64
2018-07-25T05:33:19.782Z,98406.94
2018-07-25T05:35:48.400Z,98404.67
2018-07-25T05:38:16.950Z,98409.25
2018-07-25T05:40:45.654Z,98414.54
2018-07-25T05:43:14.170Z,98413.25
2018-07-25T05:45:42.767Z,98422.22
2018-07-25T05:48:11.275Z,98414.26
2018-07-25T05:50:40.176Z,98415.08
2018-07-25T05:53:08.870Z,98411.58
2018-07-25T05:55:37.475Z,98416.75
2018-07-25T05:58:06.027Z,98409.61
2018-07-25T06:00:34.678Z,98415.78
2018-07-25T06:03:03.499Z,98415.91
2018-07-25T06:05:31.967Z,98415.15
2018-07-25T06:08:00.650Z,98413.51
2018-07-25T06:10:29.230Z,98416.16
2018-07-25T06:12:58.471Z,98420.88
2018-07-25T06:15:27.652Z,98426.21
2018-07-25T06:17:56.457Z,98421.05
2018-07-25T06:20:25.067Z,98431.75
2018-07-25T06:22:53.711Z,98429.16
2018-07-25T06:25:22.300Z,98433.38
2018-07-25T06:27:50.853Z,98431.09
2018-07-25T06:30:19.395Z,98444.13
2018-07-25T06:32:48.126Z,98446.72
2018-07-25T06:35:16.690Z,98442.88
2018-07-25T06:37:45.557Z,98440.54
2018-07-25T06:40:14.197Z,98442.88
2018-07-25T06:42:42.837Z,98447.59
2018-07-25T06:45:11.469Z,98448.84
2018-07-25T06:47:40.065Z,98448.02
2018-07-25T06:50:09.254Z,98447.20
2018-07-25T06:52:37.839Z,98448.98
2018-07-25T06:55:06.662Z,98447.02
2018-07-25T06:57:35.397Z,98441.31
2018-07-25T07:00:04.115Z,98446.75
2018-07-25T07:02:32.666Z,98451.02
2018-07-25T07:05:01.270Z,98451.69
2018-07-25T07:07:29.823Z,98445.74
2018-07-25T07:09:58.394Z,98440.88
2018-07-25T07:12:27.126Z,98450.44
2018-07-25T07:14:55.633Z,98445.17
2018-07-25T07:17:24.250Z,98451.20
2018-07-25T07:19:52.826Z,98451.71
2018-07-25T07:22:21.582Z,98451.80
2018-07-25T07:24:50.178Z,98450.65
2018-07-25T07:27:18.742Z,98446.36
2018-07-25T07:29:47.350Z,98442.47
2018-07-25T07:32:15.874Z,98444.97
2018-07-25T07:34:44.375Z,98442.86
2018-07-25T07:37:13.047Z,98438.98
2018-07-25T07:39:41.549Z,98437.16
2018-07-25T07:42:10.253Z,98445.81
2018-07-25T07:44:38.911Z,98442.79
2018-07-25T07:47:07.468Z,98439.38
2018-07-25T07:49:36.010Z,98448.77
2018-07-25T07:52:04.552Z,98444.55
2018-07-25T07:54:33.126Z,98448.79
2018-07-25T07:57:05.840Z,98445.76
2018-07-25T07:59:34.387Z,98448.00
2018-07-25T08:02:03.322Z,98446.30
2018-07-25T08:04:31.865Z,98445.41
2018-07-25T08:07:00.330Z,98445.14
2018-07-25T08:09:28.818Z,98445.41
2018-07-25T08:11:57.454Z,98441.13
2018-07-25T08:14:26.045Z,98439.06
2018-07-25T08:16:54.550Z,98437.30
2018-07-25T08:19:23.092Z,98439.63
2018-07-25T08:21:51.749Z,98442.47
2018-07-25T08:24:20.234Z,98438.19
2018-07-25T08:26:48.715Z,98438.16
2018-07-25T08:29:17.238Z,98431.36
2018-07-25T08:31:45.786Z,98430.22
2018-07-25T08:34:14.390Z,98434.83
2018-07-25T08:36:42.938Z,98434.79
2018-07-25T08:39:11.999Z,98433.25
2018-07-25T08:41:40.601Z,98437.30
2018-07-25T08:44:09.159Z,98428.94
2018-07-25T08:46:37.911Z,98431.77
2018-07-25T08:49:06.702Z,98436.62
2018-07-25T08:51:35.357Z,98430.96
2018-07-25T08:54:03.846Z,98431.97
2018-07-25T08:56:32.379Z,98430.51
2018-07-25T08:59:01.028Z,98431.31
2018-07-25T09:01:29.729Z,98432.11
2018-07-25T09:03:59.385Z,98432.56
2018-07-25T09:06:27.934Z,98423.89
2018-07-25T09:08:56.378Z,98432.69
2018-07-25T09:11:28.089Z,98429.55
2018-07-25T09:13:57.705Z,98431.59
2018-07-25T09:16:27.243Z,98430.03
2018-07-25T09:18:56.174Z,98432.70
2018-07-25T09:21:24.754Z,98430.44
2018-07-25T09:23:53.768Z,98428.04
2018-07-25T09:26:22.342Z,98420.90
2018-07-25T09:28:50.970Z,98423.14
2018-07-25T09:31:19.467Z,98420.45
2018-07-25T09:33:48.102Z,98419.47
2018-07-25T09:36:16.690Z,98412.58
2018-07-25T09:38:45.194Z,98419.00
2018-07-25T09:41:13.794Z,98411.22
2018-07-25T09:43:42.246Z,98408.75
2018-07-25T09:46:10.982Z,98407.93
2018-07-25T09:48:39.490Z,98410.41
2018-07-25T09:51:09.123Z,98409.51
2018-07-25T09:53:37.632Z,98409.84
2018-07-25T09:56:06.162Z,98411.52
2018-07-25T09:58:34.686Z,98409.27
2018-07-25T10:01:03.469Z,98402.90
2018-07-25T10:03:31.908Z,98406.52
2018-07-25T10:06:00.499Z,98400.23
2018-07-25T10:08:29.084Z,98396.37
2018-07-25T10:11:02.270Z,98395.71
2018-07-25T10:13:30.832Z,98394.43
2018-07-25T10:15:59.635Z,98390.52
2018-07-25T10:18:28.298Z,98395.27
2018-07-25T10:20:57.053Z,98381.62
2018-07-25T10:23:25.563Z,98389.38
2018-07-25T10:25:54.806Z,98388.92
2018-07-25T10:28:23.365Z,98391.02
2018-07-25T10:30:51.906Z,98389.55
2018-07-25T10:33:20.422Z,98382.52
2018-07-25T10:35:49.201Z,98382.52
2018-07-25T10:38:17.681Z,98387.92
2018-07-25T10:40:46.254Z,98389.31
2018-07-25T10:43:14.758Z,98377.95
2018-07-25T10:45:43.349Z,98379.93
2018-07-25T10:48:11.885Z,98381.81
2018-07-25T10:50:40.428Z,98384.71
2018-07-25T10:53:09.091Z,98376.67
2018-07-25T10:55:37.713Z,98372.73
2018-07-25T10:58:06.292Z,98370.67
2018-07-25T11:00:34.948Z,98361.75
2018-07-25T11:03:03.578Z,98367.70
2018-07-25T11:05:32.199Z,98369.63
2018-07-25T11:08:00.654Z,98366.81
2018-07-25T11:10:29.294Z,98360.47
2018-07-25T11:12:57.868Z,98362.86
2018-07-25T11:15:26.426Z,98360.12
2018-07-25T11:17:55.106Z,98358.77
2018-07-25T11:20:23.894Z,98358.41
2018-07-25T11:22:52.687Z,98358.39
2018-07-25T11:25:21.326Z,98347.12
2018-07-25T11:27:50.204Z,98349.25
2018-07-25T11:30:18.872Z,98350.84
2018-07-25T11:32:47.372Z,98340.57
2018-07-25T11:35:16.014Z,98347.22
2018-07-25T11:37:44.693Z,98346.07
2018-07-25T11:40:13.357Z,98347.13
2018-07-25T11:42:41.862Z,98345.42
2018-07-25T11:45:10.430Z,98349.77
2018-07-25T11:47:39.263Z,98346.74
2018-07-25T11:50:08.015Z,98350.56
2018-07-25T11:52:36.622Z,98340.90
2018-07-25T11:55:05.852Z,98343.59
2018-07-25T11:57:34.370Z,98338.16
2018-07-25T12:00:02.955Z,98342.41
2018-07-25T12:02:31.565Z,98342.70
2018-07-25T12:05:00.068Z,98343.38
2018-07-25T12:07:28.750Z,98344.69
2018-07-25T12:09:57.710Z,98341.47
2018-07-25T12:12:26.362Z,98338.97
2018-07-25T12:14:55.098Z,98339.08
2018-07-25T12:17:24.034Z,98339.22
2018-07-25T12:19:52.610Z,98335.31
2018-07-25T12:22:21.132Z,98335.16
2018-07-25T12:24:49.777Z,98334.84
2018-07-25T12:27:18.361Z,98328.64
2018-07-25T12:29:46.966Z,98330.92
2018-07-25T12:32:15.481Z,98331.59
2018-07-25T12:34:44.038Z,98327.98
2018-07-25T12:37:12.514Z,98332.20
2018-07-25T12:39:40.998Z,98333.73
2018-07-25T12:42:09.519Z,98332.19
2018-07-25T12:44:38.128Z,98328.86
2018-07-25T12:47:06.730Z,98333.98
2018-07-25T12:49:35.406Z,98323.31
2018-07-25T12:52:04.050Z,98329.00
2018-07-25T12:54:32.871Z,98321.73
2018-07-25T12:57:01.595Z,98318.19
2018-07-25T12:59:30.467Z,98319.48
2018-07-25T13:01:58.973Z,98311.72
2018-07-25T13:04:27.615Z,98307.72
2018-07-25T13:06:56.110Z,98307.03
2018-07-25T13:09:24.654Z,98306.08
2018-07-25T13:11:53.255Z,98302.90
2018-07-25T13:14:21.851Z,98301.01
2018-07-25T13:16:50.425Z,98305.64
2018-07-25T13:19:19.103Z,98294.58
2018-07-25T13:21:47.722Z,98299.77
2018-07-25T13:24:16.334Z,98301.45
2018-07-25T13:26:45.167Z,98300.88
2018-07-25T13:29:13.678Z,98298.83
2018-07-25T13:31:42.735Z,98302.92
2018-07-25T13:34:11.266Z,98296.70
2018-07-25T13:36:39.889Z,98286.33
2018-07-25T13:39:09.218Z,98291.20
2018-07-25T13:41:37.693Z,98289.06
2018-07-25T13:44:06.503Z,98288.70
2018-07-25T13:46:35.102Z,98271.37
2018-07-25T13:49:03.783Z,98263.81
2018-07-25T13:51:32.371Z,98257.11
2018-07-25T13:54:00.969Z,98263.91
2018-07-25T13:56:33.538Z,98261.81
2018-07-25T13:59:02.490Z,98262.83
2018-07-25T14:01:31.053Z,98261.95
2018-07-25T14:03:59.596Z,98258.38
2018-07-25T14:06:28.334Z,98249.13
2018-07-25T14:08:56.937Z,98252.57
2018-07-25T14:11:25.505Z,98251.83
2018-07-25T14:13:54.125Z,98246.66
2018-07-25T14:16:22.586Z,98248.87
2018-07-25T14:18:51.369Z,98244.70
2018-07-25T14:21:23.083Z,98253.68
2018-07-25T14:23:51.848Z,98253.46
2018-07-25T14:26:20.258Z,98253.02
2018-07-25T14:28:48.852Z,98255.89
2018-07-25T14:31:17.498Z,98254.87
2018-07-25T14:33:46.037Z,98247.67
2018-07-25T14:36:14.696Z,98245.48
2018-07-25T14:38:43.310Z,98245.88
2018-07-25T14:41:11.883Z,98246.45
2018-07-25T14:43:40.408Z,98238.53
2018-07-25T14:46:09.086Z,98236.09
2018-07-25T14:48:37.577Z,98234.79
2018-07-25T14:51:06.245Z,98229.30
2018-07-25T14:53:34.731Z,98226.63
2018-07-25T14:56:03.240Z,98226.81
2018-07-25T14:58:31.782Z,98230.01
2018-07-25T15:01:00.430Z,98226.73
2018-07-25T15:03:28.963Z,98224.45
2018-07-25T15:05:57.494Z,98224.45
2018-07-25T15:08:26.122Z,98217.48
2018-07-25T15:10:54.747Z,98216.98
2018-07-25T15:13:23.427Z,98210.39
2018-07-25T15:15:52.103Z,98214.39
2018-07-25T15:18:20.774Z,98217.24
2018-07-25T15:20:49.504Z,98209.17
2018-07-25T15:23:29.213Z,98222.42
2018-07-25T15:25:57.715Z,98224.11
2018-07-25T15:28:26.295Z,98214.13
2018-07-25T15:30:55.066Z,98218.64
2018-07-25T15:33:23.563Z,98214.97
2018-07-25T15:35:52.315Z,98216.95
2018-07-25T15:38:20.826Z,98221.14
2018-07-25T15:40:49.394Z,98219.13
2018-07-25T15:43:17.878Z,98216.16
2018-07-25T15:45:46.389Z,98216.69
2018-07-25T15:48:15.097Z,98212.64
2018-07-25T15:50:43.694Z,98212.44
2018-07-25T15:53:12.244Z,98213.53
2018-07-25T15:55:40.835Z,98211.15
2018-07-25T15:58:09.430Z,98213.16
2018-07-25T16:00:38.343Z,98215.31
2018-07-25T16:03:06.502Z,98202.95
2018-07-25T16:05:35.207Z,98207.41
2018-07-25T16:08:03.794Z,98210.50
2018-07-25T16:10:32.359Z,98207.53
2018-07-25T16:13:01.027Z,98205.08
2018-07-25T16:15:29.698Z,98197.72
2018-07-25T16:17:58.319Z,98196.55
2018-07-25T16:20:26.862Z,98197.05
2018-07-25T16:22:55.518Z,98196.61
2018-07-25T16:25:24.325Z,98189.58
2018-07-25T16:27:52.985Z,98192.27
2018-07-25T16:30:21.534Z,98190.58
2018-07-25T16:32:50.109Z,98188.33
2018-07-25T16:35:18.651Z,98192.31
2018-07-25T16:37:47.180Z,98184.94
2018-07-25T16:40:15.751Z,98191.56
2018-07-25T16:42:44.363Z,98194.06
2018-07-25T16:45:12.895Z,98185.48
2018-07-25T16:47:41.501Z,98189.59
2018-07-25T16:50:10.314Z,98193.98
2018-07-25T16:52:38.918Z,98192.25
2018-07-25T16:55:07.632Z,98185.72
2018-07-25T16:57:36.145Z,98191.84
2018-07-25T17:00:09.735Z,98193.80
2018-07-25T17:02:38.352Z,98189.45
2018-07-25T17:05:07.306Z,98189.06
2018-07-25T17:07:35.819Z,98197.05
2018-07-25T17:10:05.154Z,98193.59
2018-07-25T17:12:33.795Z,98208.08
2018-07-25T17:15:02.546Z,98210.73
2018-07-25T17:17:31.149Z,98204.72
2018-07-25T17:19:59.630Z,98222.63
2018-07-25T17:22:28.263Z,98220.25
2018-07-25T17:24:56.793Z,98219.53
2018-07-25T17:27:25.384Z,98219.01
2018-07-25T17:29:53.887Z,98217.86
2018-07-25T17:32:22.461Z,98217.39
2018-07-25T17:34:51.046Z,98216.19
2018-07-25T17:37:19.857Z,98220.81
2018-07-25T17:39:48.408Z,98221.12
2018-07-25T17:42:17.006Z,98217.48
2018-07-25T17:44:45.597Z,98210.58
2018-07-25T17:47:14.210Z,98207.77
2018-07-25T17:49:42.746Z,98209.92
2018-07-25T17:52:12.274Z,98222.33
2018-07-25T17:54:40.986Z,98225.94
2018-07-25T17:57:09.706Z,98223.95
2018-07-25T17:59:38.256Z,98214.39
2018-07-25T18:02:06.958Z,98220.36
2018-07-25T18:04:35.480Z,98219.61
2018-07-25T18:07:05.092Z,98215.17
2018-07-25T18:09:34.422Z,98218.31
2018-07-25T18:12:03.094Z,98218.64
2018-07-25T18:14:31.673Z,98223.41
2018-07-25T18:17:02.527Z,98220.70
2018-07-25T18:19:31.121Z,98213.00
2018-07-25T18:21:59.665Z,98212.16
2018-07-25T18:24:28.146Z,98214.09
2018-07-25T18:26:56.926Z,98211.85
2018-07-25T18:29:25.439Z,98205.44
2018-07-25T18:31:54.235Z,98208.69
2018-07-25T18:34:22.845Z,98217.77
2018-07-25T18:36:51.669Z,98211.66
2018-07-25T18:39:20.210Z,98214.33
2018-07-25T18:41:48.763Z,98219.19
2018-07-25T18:44:17.586Z,98220.23
2018-07-25T18:46:46.485Z,98226.76
2018-07-25T18:49:15.493Z,98223.06
2018-07-25T18:51:44.118Z,98216.34
2018-07-25T18:54:12.766Z,98219.80
2018-07-25T18:56:41.729Z,98224.91
2018-07-25T18:59:10.575Z,98225.59
2018-07-25T19:01:39.382Z,98226.48
2018-07-25T19:04:08.020Z,98235.50
2018-07-25T19:06:36.544Z,98231.04
2018-07-25T19:09:08.379Z,98240.12
2018-07-25T19:11:36.890Z,98237.09
2018-07-25T19:14:10.574Z,98239.12
2018-07-25T19:16:39.055Z,98240.97
2018-07-25T19:19:07.554Z,98238.66
2018-07-25T19:21:36.042Z,98249.59
2018-07-25T19:24:04.490Z,98250.30
2018-07-25T19:26:32.970Z,98248.53
2018-07-25T19:29:01.461Z,98256.30
2018-07-25T19:31:30.091Z,98254.24
2018-07-25T19:33:59.120Z,98265.84
2018-07-25T19:36:27.618Z,98271.36
2018-07-25T19:38:56.122Z,98273.84
2018-07-25T19:41:24.571Z,98272.42
2018-07-25T19:43:53.100Z,98277.54
2018-07-25T19:46:21.726Z,98283.12
2018-07-25T19:48:50.287Z,98281.33
2018-07-25T19:51:18.979Z,98284.94
2018-07-25T19:53:47.523Z,98287.72
2018-07-25T19:56:16.095Z,98284.42
2018-07-25T19:58:44.542Z,98285.98
2018-07-25T20:01:13.099Z,98285.98
2018-07-25T20:03:41.661Z,98290.65
2018-07-25T20:06:10.167Z,98293.62
2018-07-25T20:08:38.763Z,98291.64
2018-07-25T20:11:07.933Z,98294.11
2018-07-25T20:13:40.662Z,98294.98
2018-07-25T20:16:09.133Z,98295.64
2018-07-25T20:18:37.740Z,98296.34
2018-07-25T20:21:06.708Z,98305.77
2018-07-25T20:23:35.395Z,98303.02
2018-07-25T20:26:03.955Z,98299.89
2018-07-25T20:28:32.522Z,98302.17
2018-07-25T20:31:00.977Z,98299.43
2018-07-25T20:33:29.500Z,98295.35
2018-07-25T20:35:58.150Z,98303.52
2018-07-25T20:38:26.789Z,98302.91
2018-07-25T20:40:55.571Z,98307.16
2018-07-25T20:43:24.091Z,98305.53
2018-07-25T20:45:52.657Z,98312.09
2018-07-25T20:48:21.196Z,98317.93
2018-07-25T20:50:49.853Z,98316.66
2018-07-25T20:53:18.314Z,98321.08
2018-07-25T20:55:46.955Z,98321.30
2018-07-25T20:58:15.502Z,98318.73
2018-07-25T21:00:44.036Z,98321.91
2018-07-25T21:03:12.594Z,98324.77
2018-07-25T21:05:41.232Z,98329.74
2018-07-25T21:08:10.090Z,98336.44
2018-07-25T21:10:38.977Z,98334.53
2018-07-25T21:13:07.477Z,98334.97
2018-07-25T21:15:36.523Z,98341.52
2018-07-25T21:18:05.346Z,98343.73
2018-07-25T21:20:33.886Z,98345.03
2018-07-25T21:23:02.355Z,98341.73
2018-07-25T21:25:30.920Z,98346.15
2018-07-25T21:27:59.418Z,98340.44
2018-07-25T21:30:27.897Z,98343.48
2018-07-25T21:32:56.377Z,98344.15
2018-07-25T21:35:24.980Z,98350.00
2018-07-25T21:37:53.954Z,98348.41
2018-07-25T21:40:22.466Z,98353.38
2018-07-25T21:42:50.931Z,98346.08
2018-07-25T21:45:19.406Z,98345.67
2018-07-25T21:47:49.282Z,98344.92
2018-07-25T21:50:17.813Z,98345.66
2018-07-25T21:52:47.327Z,98342.77
2018-07-25T21:55:15.983Z,98343.06
2018-07-25T21:57:44.582Z,98341.89
2018-07-25T22:00:15.841Z,98344.24
2018-07-25T22:02:45.969Z,98337.41
2018-07-25T22:05:14.943Z,98349.39
2018-07-25T22:07:45.585Z,98349.11
2018-07-25T22:10:14.467Z,98353.94
2018-07-25T22:12:42.987Z,98352.34
2018-07-25T22:15:12.189Z,98350.13
2018-07-25T22:17:41.014Z,98350.51
2018-07-25T22:20:11.648Z,98346.12
2018-07-25T22:22:40.801Z,98340.05
2018-07-25T22:25:10.078Z,98339.78
2018-07-25T22:27:39.330Z,98343.39
2018-07-25T22:30:08.296Z,98336.50
2018-07-25T22:32:36.866Z,98343.14
2018-07-25T22:35:05.436Z,98335.53
2018-07-25T22:37:34.143Z,98337.00
2018-07-25T22:40:02.659Z,98334.08
2018-07-25T22:42:31.201Z,98334.69
2018-07-25T22:44:59.963Z,98336.10
2018-07-25T22:47:28.731Z,98341.56
2018-07-25T22:49:57.596Z,98342.16
2018-07-25T22:52:26.139Z,98331.57
2018-07-25T22:54:54.831Z,98329.92
2018-07-25T22:57:23.443Z,98334.06
2018-07-25T22:59:52.095Z,98328.64
2018-07-25T23:02:20.649Z,98332.03
2018-07-25T23:04:49.535Z,98330.27
2018-07-25T23:07:18.138Z,98325.54
2018-07-25T23:09:46.878Z,98333.52
2018-07-25T23:12:15.420Z,98341.75
2018-07-25T23:14:44.143Z,98337.03
2018-07-25T23:17:12.668Z,98336.00
2018-07-25T23:19:41.206Z,98335.38
2018-07-25T23:22:09.790Z,98333.05
2018-07-25T23:24:38.617Z,98333.38
2018-07-25T23:27:07.142Z,98338.92
2018-07-25T23:29:35.901Z,98332.73
2018-07-25T23:32:04.486Z,98324.58
2018-07-25T23:34:32.960Z,98337.77
2018-07-25T23:37:01.412Z,98336.95
2018-07-25T23:39:30.106Z,98340.62
2018-07-25T23:41:58.708Z,98340.91
2018-07-25T23:44:28.369Z,98346.36
2018-07-25T23:46:56.957Z,98341.31
2018-07-25T23:49:25.578Z,98339.73
2018-07-25T23:51:54.124Z,98335.53
2018-07-25T23:54:22.680Z,98336.38
2018-07-25T23:56:51.377Z,98333.39
2018-07-25T23:59:20.046Z,98334.31
